This is the latest recevied weather packets stored in our database for station/object OK3FM-14. If no packets are shown the sender has not sent any weather packets the latest 10 day(s).
| Time | Temp. | Humidity | Pressure | Rain* | Wind** | Luminosity | Snow |
|---|---|---|---|---|---|---|---|
| 1787783843 | 13.33° C | 87% | 1021.3 hPa | - | - | - | - |
| 1787783243 | 13.33° C | 87% | 1021.3 hPa | - | - | - | - |
| 1787782647 | 13.33° C | 86% | 1021.3 hPa | - | - | - | - |
| 1787782041 | 13.33° C | 85% | 1021.2 hPa | - | - | - | - |
| 1787781441 | 13.89° C | 86% | 1021.3 hPa | - | - | - | - |
| 1787780841 | 13.89° C | 84% | 1021.2 hPa | - | - | - | - |
| 1787780241 | 13.89° C | 86% | 1021.3 hPa | - | - | - | - |
| 1787779641 | 13.89° C | 85% | 1021.4 hPa | - | - | - | - |
| 1787779041 | 14.44° C | 84% | 1021.5 hPa | - | - | - | - |
| 1787778441 | 14.44° C | 83% | 1021.4 hPa | - | - | - | - |
| 1787777844 | 14.44° C | 81% | 1021.3 hPa | - | - | - | - |
| 1787777244 | 15° C | 79% | 1021.3 hPa | - | - | - | - |
| 1787776641 | 15.56° C | 77% | 1021.2 hPa | - | - | - | - |
| 1787776041 | 15.56° C | 76% | 1021.3 hPa | - | - | - | - |
| 1787775442 | 16.11° C | 74% | 1021.3 hPa | - | - | - | - |
| 1787774841 | 16.67° C | 71% | 1021.2 hPa | - | - | - | - |
| 1787774241 | 16.67° C | 72% | 1021.2 hPa | - | - | - | - |
| 1787773641 | 16.67° C | 70% | 1021.2 hPa | - | - | - | - |
| 1787773042 | 16.67° C | 70% | 1021.1 hPa | - | - | - | - |
| 1787772441 | 16.67° C | 70% | 1021.1 hPa | - | - | - | - |
| 1787771841 | 16.11° C | 71% | 1021.2 hPa | - | - | - | - |
| 1787771241 | 16.67° C | 70% | 1021.1 hPa | - | - | - | - |
| 1787770641 | 16.67° C | 69% | 1021.1 hPa | - | - | - | - |
| 1787770042 | 17.22° C | 67% | 1020.9 hPa | - | - | - | - |
| 1787769441 | 17.22° C | 67% | 1020.8 hPa | - | - | - | - |
* Rain since midnight (hover to see other rain measurements)
** Current wind speed in m/s (hover to see current wind gust speed)